Time;durP1;ratioP1;P1;durP2;ratioP2;P2;SDS_P1;SDS_P2;PMS_P1;PMS_P2;Temp;Humidity;BMP_temperature;BMP_pressure;BME280_temperature;BME280_humidity;BME280_pressure;Samples;Min_cycle;Max_cycle;Signal;HPM_P1;HPM_P2
2023/09/06 00:02:07;;;;;;;12.80;7.55;;;;;;;;;;6253064;28;20048;-59
2023/09/06 00:05:07;;;;;;;12.90;8.35;;;;;;;;;;6243776;28;20037;-58
2023/09/06 00:08:13;;;;;;;14.88;7.68;;;;;;;;;;6249876;28;20486;-57
2023/09/06 00:11:15;;;;;;;13.55;7.93;;;;;;;;;;6245742;28;20041;-57
2023/09/06 00:14:15;;;;;;;12.32;7.90;;;;;;;;;;6242048;28;20053;-59
2023/09/06 00:17:16;;;;;;;15.80;8.98;;;;;;;;;;6245257;28;20055;-57
2023/09/06 00:20:20;;;;;;;14.30;7.90;;;;;;;;;;6245875;28;20048;-58
2023/09/06 00:23:21;;;;;;;13.25;7.35;;;;;;;;;;6246655;28;20055;-58
2023/09/06 00:26:21;;;;;;;13.23;7.75;;;;;;;;;;6246183;28;20045;-58
2023/09/06 00:29:22;;;;;;;14.93;8.90;;;;;;;;;;6251509;28;20084;-58
2023/09/06 00:32:22;;;;;;;13.32;8.45;;;;;;;;;;6247460;28;20045;-58
2023/09/06 00:35:26;;;;;;;14.55;8.43;;;;;;;;;;6246242;28;20132;-58
2023/09/06 00:38:28;;;;;;;16.23;8.63;;;;;;;;;;6248971;28;20041;-59
2023/09/06 00:41:29;;;;;;;14.30;7.65;;;;;;;;;;6246288;28;20049;-58
2023/09/06 00:44:29;;;;;;;13.55;8.20;;;;;;;;;;6243888;28;20519;-57
2023/09/06 00:47:31;;;;;;;15.02;9.02;;;;;;;;;;6250832;28;20121;-59
2023/09/06 00:50:35;;;;;;;15.48;8.70;;;;;;;;;;6243344;28;20416;-58
2023/09/06 00:53:36;;;;;;;13.68;8.85;;;;;;;;;;6241896;28;20046;-57
2023/09/06 00:56:39;;;;;;;16.80;8.88;;;;;;;;;;6242450;28;20745;-59
2023/09/06 00:59:40;;;;;;;14.07;8.68;;;;;;;;;;6248779;28;20524;-58
2023/09/06 01:02:41;;;;;;;15.02;8.43;;;;;;;;;;6243403;28;20104;-59
2023/09/06 01:05:49;;;;;;;12.73;8.68;;;;;;;;;;6256897;28;20049;-58
2023/09/06 01:08:56;;;;;;;16.05;8.82;;;;;;;;;;6243418;28;20049;-56
2023/09/06 01:11:58;;;;;;;15.38;8.65;;;;;;;;;;6250703;28;20052;-57
2023/09/06 01:14:59;;;;;;;17.08;9.32;;;;;;;;;;6250348;28;20052;-57
2023/09/06 01:18:02;;;;;;;16.92;9.63;;;;;;;;;;6247631;28;20367;-58
2023/09/06 01:21:09;;;;;;;21.40;9.90;;;;;;;;;;6249489;28;20114;-59
2023/09/06 01:24:10;;;;;;;18.85;9.23;;;;;;;;;;6251920;28;20045;-58
2023/09/06 01:27:12;;;;;;;18.20;9.97;;;;;;;;;;6250981;28;20433;-56
2023/09/06 01:30:14;;;;;;;16.50;9.23;;;;;;;;;;6247566;28;20386;-58
2023/09/06 01:33:16;;;;;;;18.55;9.70;;;;;;;;;;6251916;28;20103;-58
2023/09/06 01:36:17;;;;;;;17.27;9.75;;;;;;;;;;6251523;28;20063;-58
2023/09/06 01:39:17;;;;;;;14.80;8.95;;;;;;;;;;6260715;28;20476;-59
2023/09/06 01:42:22;;;;;;;18.23;10.27;;;;;;;;;;6253744;28;20069;-57
2023/09/06 01:45:22;;;;;;;14.63;8.60;;;;;;;;;;6250038;28;20381;-56
2023/09/06 01:48:23;;;;;;;15.52;8.50;;;;;;;;;;6248758;28;20044;-58
2023/09/06 01:51:24;;;;;;;14.57;8.25;;;;;;;;;;6251836;28;20045;-59
2023/09/06 01:54:25;;;;;;;18.38;9.25;;;;;;;;;;6250317;28;20041;-56
2023/09/06 01:57:25;;;;;;;13.90;8.75;;;;;;;;;;6250425;28;20468;-59
2023/09/06 02:00:31;;;;;;;15.75;8.90;;;;;;;;;;6248298;28;20080;-59
2023/09/06 02:03:33;;;;;;;15.05;8.70;;;;;;;;;;6245042;28;20389;-59
2023/09/06 02:06:34;;;;;;;13.73;8.88;;;;;;;;;;6252573;28;20473;-55
2023/09/06 02:09:34;;;;;;;21.83;9.38;;;;;;;;;;6247418;28;20048;-57
2023/09/06 02:12:35;;;;;;;16.05;8.45;;;;;;;;;;6256431;28;20056;-58
2023/09/06 02:15:35;;;;;;;14.63;8.75;;;;;;;;;;6251268;28;20794;-58
2023/09/06 02:18:36;;;;;;;15.40;8.90;;;;;;;;;;6249421;28;20045;-58
2023/09/06 02:21:38;;;;;;;15.15;8.48;;;;;;;;;;6247661;28;20041;-57
2023/09/06 02:24:39;;;;;;;;;;;;;;;;;;6246607;28;20051;-56
2023/09/06 02:27:42;;;;;;;14.15;8.50;;;;;;;;;;6245635;28;20671;-57
2023/09/06 02:30:43;;;;;;;13.48;8.18;;;;;;;;;;6249058;28;20040;-58
2023/09/06 02:33:44;;;;;;;12.38;7.47;;;;;;;;;;6246956;28;20072;-57
2023/09/06 02:36:45;;;;;;;14.02;8.32;;;;;;;;;;6246976;28;20037;-58
2023/09/06 02:39:48;;;;;;;12.73;8.48;;;;;;;;;;6244926;28;20049;-58
2023/09/06 02:42:49;;;;;;;14.20;8.60;;;;;;;;;;6245539;28;20044;-57
2023/09/06 02:45:53;;;;;;;15.35;8.30;;;;;;;;;;6252788;28;20413;-59
2023/09/06 02:48:57;;;;;;;15.43;9.50;;;;;;;;;;6245190;28;20068;-58
2023/09/06 02:51:58;;;;;;;14.75;8.65;;;;;;;;;;6244815;28;20038;-59
2023/09/06 02:55:01;;;;;;;18.05;8.60;;;;;;;;;;6244507;28;20385;-58
2023/09/06 02:58:02;;;;;;;16.02;9.82;;;;;;;;;;6246265;28;20099;-58
2023/09/06 03:01:06;;;;;;;17.65;9.13;;;;;;;;;;6249417;28;20095;-59
2023/09/06 03:04:06;;;;;;;16.05;8.75;;;;;;;;;;6244020;28;20053;-58
2023/09/06 03:07:07;;;;;;;17.27;9.02;;;;;;;;;;6246651;28;20156;-58
2023/09/06 03:10:09;;;;;;;18.90;8.90;;;;;;;;;;6257254;28;20052;-59
2023/09/06 03:13:10;;;;;;;16.83;9.55;;;;;;;;;;6251667;28;20045;-59
2023/09/06 03:16:13;;;;;;;15.50;9.05;;;;;;;;;;6247955;28;20578;-57
2023/09/06 03:19:14;;;;;;;15.00;8.38;;;;;;;;;;6248441;28;20037;-58
2023/09/06 03:22:15;;;;;;;17.45;8.93;;;;;;;;;;6245216;28;20064;-58
2023/09/06 03:25:20;;;;;;;19.33;10.27;;;;;;;;;;6247204;28;20049;-58
2023/09/06 03:28:21;;;;;;;14.70;9.27;;;;;;;;;;6244150;28;20491;-58
2023/09/06 03:31:24;;;;;;;17.90;10.13;;;;;;;;;;6254241;28;20048;-58
2023/09/06 03:34:25;;;;;;;20.42;9.73;;;;;;;;;;6243194;28;20053;-57
2023/09/06 03:37:28;;;;;;;16.30;8.73;;;;;;;;;;6243879;28;20733;-58
2023/09/06 03:40:36;;;;;;;17.33;8.95;;;;;;;;;;6246541;28;20048;-58
2023/09/06 03:43:38;;;;;;;17.05;9.30;;;;;;;;;;6239386;28;20046;-59
2023/09/06 03:46:39;;;;;;;17.93;9.27;;;;;;;;;;6249509;28;20523;-58
2023/09/06 03:49:41;;;;;;;16.00;9.13;;;;;;;;;;6250481;28;20444;-57
2023/09/06 03:52:43;;;;;;;15.60;9.02;;;;;;;;;;6243477;28;20064;-58
2023/09/06 03:55:46;;;;;;;17.27;9.07;;;;;;;;;;6246682;28;20171;-58
2023/09/06 03:58:47;;;;;;;17.23;9.82;;;;;;;;;;6244624;28;20442;-59
2023/09/06 04:01:48;;;;;;;14.67;9.27;;;;;;;;;;6247853;28;20831;-58
2023/09/06 04:04:48;;;;;;;18.20;9.57;;;;;;;;;;6243258;28;20041;-59
2023/09/06 04:07:50;;;;;;;22.25;10.07;;;;;;;;;;6260474;28;20395;-58
2023/09/06 04:10:51;;;;;;;14.68;8.93;;;;;;;;;;6256295;28;20041;-58
2023/09/06 04:13:52;;;;;;;17.15;9.63;;;;;;;;;;6247344;28;20553;-58
2023/09/06 04:16:53;;;;;;;15.20;9.50;;;;;;;;;;6248766;28;20053;-59
2023/09/06 04:19:54;;;;;;;15.32;9.77;;;;;;;;;;6240485;28;20088;-58
2023/09/06 04:22:55;;;;;;;18.67;9.68;;;;;;;;;;6253433;28;20053;-57
2023/09/06 04:25:55;;;;;;;17.60;10.07;;;;;;;;;;6258987;28;20053;-57
2023/09/06 04:28:56;;;;;;;17.98;9.77;;;;;;;;;;6253599;28;20045;-58
2023/09/06 04:31:56;;;;;;;19.50;11.40;;;;;;;;;;6250248;28;20049;-56
2023/09/06 04:34:58;;;;;;;19.27;10.82;;;;;;;;;;6253649;28;20052;-58
2023/09/06 04:38:02;;;;;;;17.13;10.57;;;;;;;;;;6253994;28;20045;-59
2023/09/06 04:41:02;;;;;;;23.42;11.75;;;;;;;;;;6258553;28;20041;-59
2023/09/06 04:44:03;;;;;;;17.75;10.35;;;;;;;;;;6251953;28;20073;-58
2023/09/06 04:47:04;;;;;;;23.85;10.80;;;;;;;;;;6267767;28;20045;-58
2023/09/06 04:50:05;;;;;;;22.60;12.43;;;;;;;;;;6256872;28;20553;-58
2023/09/06 04:53:09;;;;;;;28.55;14.23;;;;;;;;;;6251889;28;20492;-56
2023/09/06 04:56:10;;;;;;;19.48;11.63;;;;;;;;;;6248851;28;20046;-60
2023/09/06 04:59:10;;;;;;;20.58;12.10;;;;;;;;;;6249572;28;20132;-58
2023/09/06 05:02:11;;;;;;;20.88;11.65;;;;;;;;;;6251865;28;20361;-59
2023/09/06 05:05:13;;;;;;;21.67;12.02;;;;;;;;;;6251964;28;20068;-59
2023/09/06 05:08:14;;;;;;;20.73;13.20;;;;;;;;;;6250527;28;20049;-59
2023/09/06 05:11:15;;;;;;;23.60;13.60;;;;;;;;;;6248101;28;20053;-59
2023/09/06 05:14:16;;;;;;;23.87;13.87;;;;;;;;;;6250871;28;20046;-58
2023/09/06 05:17:16;;;;;;;22.92;13.65;;;;;;;;;;6258771;28;20053;-58
2023/09/06 05:20:33;;;;;;;23.33;14.10;;;;;;;;;;6245224;28;20119;-58
2023/09/06 05:23:35;;;;;;;19.98;12.20;;;;;;;;;;6248758;28;20045;-57
2023/09/06 05:26:36;;;;;;;20.90;11.88;;;;;;;;;;6247371;28;20033;-58
2023/09/06 05:29:37;;;;;;;21.25;11.70;;;;;;;;;;6249813;28;20055;-58
2023/09/06 05:32:37;;;;;;;22.88;11.98;;;;;;;;;;6256170;28;20080;-59
2023/09/06 05:35:38;;;;;;;22.40;12.68;;;;;;;;;;6243439;28;20579;-59
2023/09/06 05:38:39;;;;;;;24.02;12.77;;;;;;;;;;6248338;28;20049;-57
2023/09/06 05:41:39;;;;;;;28.73;12.98;;;;;;;;;;6247081;28;20041;-59
2023/09/06 05:44:40;;;;;;;31.40;13.15;;;;;;;;;;6252342;28;20060;-59
2023/09/06 05:47:40;;;;;;;27.88;13.82;;;;;;;;;;6251657;28;20049;-59
2023/09/06 05:50:41;;;;;;;29.60;14.93;;;;;;;;;;6247424;28;20058;-59
2023/09/06 05:53:41;;;;;;;31.40;14.90;;;;;;;;;;6252874;28;20470;-59
2023/09/06 05:56:42;;;;;;;28.95;16.45;;;;;;;;;;6246472;28;20052;-58
2023/09/06 05:59:42;;;;;;;30.55;16.05;;;;;;;;;;6246864;28;20053;-59
2023/09/06 06:02:48;;;;;;;29.60;16.42;;;;;;;;;;6247599;28;20465;-57
2023/09/06 06:05:48;;;;;;;30.80;15.98;;;;;;;;;;6247035;28;20072;-59
2023/09/06 06:08:49;;;;;;;29.23;16.30;;;;;;;;;;6247017;28;20106;-59
2023/09/06 06:11:53;;;;;;;27.60;15.02;;;;;;;;;;6250375;28;20084;-59
2023/09/06 06:14:53;;;;;;;28.80;15.57;;;;;;;;;;6246600;28;20046;-59
2023/09/06 06:17:54;;;;;;;31.05;15.38;;;;;;;;;;6246567;28;20404;-60
2023/09/06 06:20:54;;;;;;;23.38;15.23;;;;;;;;;;6245389;28;20048;-58
2023/09/06 06:23:55;;;;;;;22.63;14.40;;;;;;;;;;6248046;28;20072;-59
2023/09/06 06:26:56;;;;;;;23.65;14.85;;;;;;;;;;6248566;28;20048;-59
2023/09/06 06:29:56;;;;;;;27.10;15.02;;;;;;;;;;6246800;28;20041;-59
2023/09/06 06:33:00;;;;;;;22.80;13.80;;;;;;;;;;6247007;28;20045;-58
2023/09/06 06:36:00;;;;;;;23.80;14.45;;;;;;;;;;6247552;28;20049;-59
2023/09/06 06:39:01;;;;;;;25.83;13.90;;;;;;;;;;6245928;28;20136;-59
2023/09/06 06:42:01;;;;;;;26.50;13.98;;;;;;;;;;6247467;28;20033;-59
2023/09/06 06:45:04;;;;;;;26.35;14.70;;;;;;;;;;6245727;28;20079;-59
2023/09/06 06:48:05;;;;;;;26.98;13.25;;;;;;;;;;6244310;28;20048;-58
2023/09/06 06:51:06;;;;;;;25.07;13.57;;;;;;;;;;6247705;28;20047;-59
2023/09/06 06:54:07;;;;;;;24.37;12.83;;;;;;;;;;6247428;28;20045;-59
2023/09/06 06:57:08;;;;;;;24.00;13.27;;;;;;;;;;6250811;28;20048;-59
2023/09/06 07:00:11;;;;;;;22.15;12.55;;;;;;;;;;6247218;28;20053;-58
2023/09/06 07:03:11;;;;;;;22.48;12.15;;;;;;;;;;6243605;28;20048;-60
2023/09/06 07:06:13;;;;;;;29.45;13.93;;;;;;;;;;6244302;28;20540;-59
2023/09/06 07:09:14;;;;;;;27.42;13.00;;;;;;;;;;6243622;28;20497;-59
2023/09/06 07:12:14;;;;;;;24.07;13.53;;;;;;;;;;6244323;28;20054;-59
2023/09/06 07:15:15;;;;;;;26.50;13.40;;;;;;;;;;6243769;28;20522;-57
2023/09/06 07:18:16;;;;;;;22.15;13.00;;;;;;;;;;6245353;28;20045;-59
2023/09/06 07:21:18;;;;;;;21.17;12.47;;;;;;;;;;6244791;28;20056;-59
2023/09/06 07:24:18;;;;;;;;;;;;;;;;;;6246440;28;20048;-59
2023/09/06 07:27:20;;;;;;;23.75;12.68;;;;;;;;;;6244900;28;19943;-59
2023/09/06 07:30:21;;;;;;;;;;;;;;;;;;6247276;28;20052;-60
2023/09/06 07:33:22;;;;;;;21.70;12.60;;;;;;;;;;6242890;28;19921;-59
2023/09/06 07:36:22;;;;;;;26.53;13.40;;;;;;;;;;6245157;28;20041;-58
2023/09/06 07:39:23;;;;;;;24.03;13.53;;;;;;;;;;6244696;28;20215;-56
2023/09/06 07:42:23;;;;;;;22.50;12.60;;;;;;;;;;6245355;28;20476;-59
2023/09/06 07:45:24;;;;;;;31.27;14.00;;;;;;;;;;6251337;28;20425;-59
2023/09/06 07:48:30;;;;;;;23.63;12.57;;;;;;;;;;6248381;28;20057;-58
2023/09/06 07:51:31;;;;;;;29.95;13.88;;;;;;;;;;6249175;28;20077;-59
2023/09/06 07:54:31;;;;;;;24.13;12.07;;;;;;;;;;6247443;28;20530;-57
2023/09/06 07:57:32;;;;;;;24.43;11.07;;;;;;;;;;6246925;28;20055;-59
2023/09/06 08:00:32;;;;;;;19.73;11.67;;;;;;;;;;6242939;28;20372;-59
2023/09/06 08:03:33;;;;;;;20.73;11.77;;;;;;;;;;6245804;28;20063;-59
2023/09/06 08:06:33;;;;;;;19.70;12.40;;;;;;;;;;6243242;28;20562;-58
2023/09/06 08:09:37;;;;;;;25.50;11.82;;;;;;;;;;6245026;28;20143;-58
2023/09/06 08:12:38;;;;;;;19.10;10.65;;;;;;;;;;6242959;28;20480;-58
2023/09/06 08:15:41;;;;;;;23.15;11.18;;;;;;;;;;6245152;28;20423;-56
2023/09/06 08:18:41;;;;;;;;;;;;;;;;;;6242881;28;20148;-60
2023/09/06 08:21:42;;;;;;;22.73;11.07;;;;;;;;;;6243896;28;19968;-58
2023/09/06 08:24:42;;;;;;;25.03;11.13;;;;;;;;;;6245485;28;20029;-58
2023/09/06 08:27:43;;;;;;;18.33;10.97;;;;;;;;;;6242441;28;20524;-59
2023/09/06 08:30:46;;;;;;;19.90;10.53;;;;;;;;;;6254689;28;20316;-59
2023/09/06 08:33:47;;;;;;;17.30;10.27;;;;;;;;;;6247990;28;20480;-60
2023/09/06 08:36:47;;;;;;;15.87;9.93;;;;;;;;;;6247783;28;20053;-60
2023/09/06 08:39:48;;;;;;;21.87;9.80;;;;;;;;;;6246227;28;20123;-59
2023/09/06 08:42:49;;;;;;;14.97;9.60;;;;;;;;;;6244297;28;20168;-60
2023/09/06 08:45:51;;;;;;;16.50;9.60;;;;;;;;;;6248527;28;20052;-57
2023/09/06 08:48:52;;;;;;;18.75;9.18;;;;;;;;;;6244634;28;20092;-58
2023/09/06 08:51:55;;;;;;;16.42;10.30;;;;;;;;;;6242275;28;20044;-59
2023/09/06 08:54:55;;;;;;;38.47;17.33;;;;;;;;;;6242980;28;20530;-59
2023/09/06 08:57:57;;;;;;;16.97;10.10;;;;;;;;;;6242549;28;20037;-58
2023/09/06 09:00:58;;;;;;;37.05;17.15;;;;;;;;;;6244042;28;20070;-58
2023/09/06 09:03:58;;;;;;;50.85;23.27;;;;;;;;;;6247918;28;20037;-57
2023/09/06 09:06:59;;;;;;;23.27;10.93;;;;;;;;;;6242600;28;20056;-56
2023/09/06 09:10:01;;;;;;;13.10;9.03;;;;;;;;;;6244293;28;20041;-59
2023/09/06 09:13:01;;;;;;;43.75;18.35;;;;;;;;;;6245932;28;20789;-58
2023/09/06 09:16:09;;;;;;;16.20;9.23;;;;;;;;;;6243404;28;20041;-59
2023/09/06 09:19:10;;;;;;;15.30;9.82;;;;;;;;;;6243210;28;20152;-58
2023/09/06 09:22:12;;;;;;;23.40;11.03;;;;;;;;;;6242652;28;20060;-59
2023/09/06 09:25:15;;;;;;;28.42;13.90;;;;;;;;;;6244513;28;20099;-59
2023/09/06 09:28:16;;;;;;;17.98;10.30;;;;;;;;;;6250273;28;20092;-58
2023/09/06 09:31:17;;;;;;;46.10;17.80;;;;;;;;;;6253008;28;20061;-59
2023/09/06 09:34:18;;;;;;;28.33;13.15;;;;;;;;;;6250306;28;20503;-59
2023/09/06 09:37:19;;;;;;;18.07;9.60;;;;;;;;;;6247876;28;20058;-59
2023/09/06 09:40:32;;;;;;;61.28;24.83;;;;;;;;;;6249071;28;20073;-60
2023/09/06 09:43:32;;;;;;;50.28;20.80;;;;;;;;;;6248639;28;20056;-58
2023/09/06 09:46:33;;;;;;;23.30;11.63;;;;;;;;;;6253491;28;20041;-60
2023/09/06 09:49:34;;;;;;;21.37;11.63;;;;;;;;;;6254262;28;20060;-60
2023/09/06 09:52:38;;;;;;;22.58;12.50;;;;;;;;;;6252341;28;20127;-59
2023/09/06 09:55:42;;;;;;;16.10;9.60;;;;;;;;;;6258987;28;20080;-57
2023/09/06 09:58:43;;;;;;;12.45;8.90;;;;;;;;;;6256577;28;20407;-59
2023/09/06 10:01:44;;;;;;;13.80;9.30;;;;;;;;;;6246933;28;20054;-59
2023/09/06 10:04:47;;;;;;;15.38;9.10;;;;;;;;;;6249251;28;20441;-60
2023/09/06 10:07:48;;;;;;;19.08;10.57;;;;;;;;;;6247882;28;20049;-60
2023/09/06 10:10:49;;;;;;;19.67;9.60;;;;;;;;;;6247273;28;20056;-60
2023/09/06 10:13:50;;;;;;;14.60;9.03;;;;;;;;;;6246622;28;20049;-59
2023/09/06 10:16:52;;;;;;;12.33;9.03;;;;;;;;;;6243726;28;20535;-58
2023/09/06 10:19:53;;;;;;;18.38;9.75;;;;;;;;;;6246095;28;20167;-59
2023/09/06 10:22:55;;;;;;;;;;;;;;;;;;6251187;28;20047;-60
2023/09/06 10:25:58;;;;;;;;;;;;;;;;;;6254598;28;20383;-59
2023/09/06 10:29:00;;;;;;;11.95;7.35;;;;;;;;;;6258934;28;19939;-58
2023/09/06 10:32:03;;;;;;;11.15;7.10;;;;;;;;;;6244073;28;20850;-58
2023/09/06 10:35:22;;;;;;;12.38;7.90;;;;;;;;;;6264248;28;20055;-56
2023/09/06 10:38:23;;;;;;;29.38;10.15;;;;;;;;;;6279074;28;20057;-59
2023/09/06 10:41:27;;;;;;;22.20;9.50;;;;;;;;;;6268747;28;20571;-61
2023/09/06 10:44:29;;;;;;;12.20;8.90;;;;;;;;;;6273357;28;20494;-60
2023/09/06 10:47:34;;;;;;;17.15;8.65;;;;;;;;;;6268662;28;20073;-59
2023/09/06 10:50:36;;;;;;;11.52;7.65;;;;;;;;;;6268071;28;20049;-58
2023/09/06 10:53:37;;;;;;;16.92;8.02;;;;;;;;;;6266555;28;20530;-58
2023/09/06 10:56:38;;;;;;;11.50;7.88;;;;;;;;;;6267817;28;20094;-61
2023/09/06 10:59:55;;;;;;;11.80;7.80;;;;;;;;;;6266758;28;20143;-61
2023/09/06 11:03:08;;;;;;;13.85;8.55;;;;;;;;;;6266466;28;20123;-58
2023/09/06 11:06:09;;;;;;;14.75;8.70;;;;;;;;;;6267259;28;20447;-60
2023/09/06 11:09:10;;;;;;;13.27;9.00;;;;;;;;;;6266641;28;20060;-60
2023/09/06 11:12:13;;;;;;;12.57;8.25;;;;;;;;;;6262462;28;20804;-60
2023/09/06 11:15:13;;;;;;;14.32;8.43;;;;;;;;;;6257495;28;20137;-60
2023/09/06 11:18:14;;;;;;;14.30;8.93;;;;;;;;;;6267100;28;20115;-60
2023/09/06 11:21:19;;;;;;;12.73;7.97;;;;;;;;;;6258772;28;20064;-60
2023/09/06 11:24:31;;;;;;;17.42;8.73;;;;;;;;;;6261559;28;20175;-60
2023/09/06 11:27:37;;;;;;;12.55;8.25;;;;;;;;;;6267807;28;20048;-60
2023/09/06 11:30:39;;;;;;;13.63;8.63;;;;;;;;;;6266003;28;20076;-58
2023/09/06 11:33:40;;;;;;;16.52;8.55;;;;;;;;;;6266401;28;20051;-60
2023/09/06 11:36:41;;;;;;;17.88;9.55;;;;;;;;;;6262136;28;20049;-60
2023/09/06 11:39:43;;;;;;;14.75;8.55;;;;;;;;;;6257050;28;20052;-61
2023/09/06 11:42:54;;;;;;;14.65;9.30;;;;;;;;;;6265679;28;20053;-60
2023/09/06 11:45:56;;;;;;;14.90;8.68;;;;;;;;;;6261212;28;20511;-60
2023/09/06 11:48:58;;;;;;;13.85;8.77;;;;;;;;;;6261690;28;20053;-59
2023/09/06 11:52:00;;;;;;;13.02;8.90;;;;;;;;;;6259679;28;20059;-60
2023/09/06 11:55:05;;;;;;;12.63;8.70;;;;;;;;;;6257036;28;20045;-60
2023/09/06 11:58:15;;;;;;;13.90;8.35;;;;;;;;;;6263382;28;20412;-60
2023/09/06 12:01:20;;;;;;;13.50;8.63;;;;;;;;;;6262807;28;20063;-59
2023/09/06 12:04:22;;;;;;;14.13;8.57;;;;;;;;;;6270534;28;20067;-59
2023/09/06 12:07:23;;;;;;;15.48;8.52;;;;;;;;;;6274409;28;20055;-59
2023/09/06 12:10:24;;;;;;;14.80;8.70;;;;;;;;;;6261364;28;20045;-58
2023/09/06 12:13:31;;;;;;;13.73;8.83;;;;;;;;;;6261845;28;20079;-60
2023/09/06 12:16:33;;;;;;;15.32;9.07;;;;;;;;;;6259028;28;20302;-60
2023/09/06 12:19:33;;;;;;;13.43;8.55;;;;;;;;;;6257379;28;20049;-60
2023/09/06 12:22:34;;;;;;;14.23;8.37;;;;;;;;;;6255015;28;20509;-60
2023/09/06 12:25:35;;;;;;;12.75;8.50;;;;;;;;;;6265116;28;20045;-60
2023/09/06 12:28:35;;;;;;;16.67;9.10;;;;;;;;;;6254149;28;20049;-60
2023/09/06 12:31:36;;;;;;;12.10;8.13;;;;;;;;;;6247817;28;20073;-60
2023/09/06 12:34:37;;;;;;;13.93;8.40;;;;;;;;;;6257005;28;20049;-61
2023/09/06 12:37:39;;;;;;;12.30;7.90;;;;;;;;;;6278293;28;20049;-60
2023/09/06 12:40:39;;;;;;;13.45;8.88;;;;;;;;;;6257417;28;20118;-59
2023/09/06 12:43:40;;;;;;;12.00;8.03;;;;;;;;;;6262833;28;20545;-60
2023/09/06 12:46:41;;;;;;;11.47;7.53;;;;;;;;;;6274109;28;20531;-60
2023/09/06 12:49:41;;;;;;;13.70;8.20;;;;;;;;;;6265749;28;20037;-60
2023/09/06 12:52:42;;;;;;;15.40;8.97;;;;;;;;;;6264305;28;20055;-60
2023/09/06 12:55:43;;;;;;;12.77;8.20;;;;;;;;;;6265487;28;20161;-60
2023/09/06 12:58:44;;;;;;;11.88;8.40;;;;;;;;;;6261364;28;20049;-60
2023/09/06 13:01:45;;;;;;;12.83;8.60;;;;;;;;;;6252664;28;20437;-59
2023/09/06 13:04:46;;;;;;;12.20;8.00;;;;;;;;;;6264870;28;20094;-59
2023/09/06 13:07:47;;;;;;;;;;;;;;;;;;6269472;28;20041;-60
2023/09/06 13:10:47;;;;;;;15.23;8.23;;;;;;;;;;6266522;28;19985;-59
2023/09/06 13:13:48;;;;;;;11.47;7.93;;;;;;;;;;6269433;28;20435;-59
2023/09/06 13:16:48;;;;;;;13.30;8.10;;;;;;;;;;6268196;28;20458;-59
2023/09/06 13:19:49;;;;;;;17.07;8.80;;;;;;;;;;6275972;28;20044;-60
2023/09/06 13:22:50;;;;;;;15.53;8.37;;;;;;;;;;6270414;28;20057;-59
2023/09/06 13:25:51;;;;;;;20.03;9.20;;;;;;;;;;6269710;28;20338;-59
2023/09/06 13:28:51;;;;;;;16.83;8.23;;;;;;;;;;6265129;28;20123;-60
2023/09/06 13:31:52;;;;;;;15.17;8.07;;;;;;;;;;6256481;28;20469;-57
2023/09/06 13:34:52;;;;;;;14.53;8.07;;;;;;;;;;6265632;28;20045;-58
2023/09/06 13:37:53;;;;;;;12.32;7.90;;;;;;;;;;6265574;28;20472;-59
2023/09/06 13:40:53;;;;;;;16.07;8.33;;;;;;;;;;6264725;28;20125;-60
2023/09/06 13:43:54;;;;;;;12.03;7.73;;;;;;;;;;6260404;28;20531;-57
2023/09/06 13:46:58;;;;;;;14.03;7.57;;;;;;;;;;6267858;28;20055;-58
2023/09/06 13:49:58;;;;;;;12.30;7.65;;;;;;;;;;6264938;28;20123;-59
2023/09/06 13:52:59;;;;;;;11.53;7.50;;;;;;;;;;6257342;28;20079;-59
2023/09/06 13:56:00;;;;;;;12.60;7.87;;;;;;;;;;6268589;28;20076;-59
2023/09/06 13:59:00;;;;;;;15.07;8.03;;;;;;;;;;6257941;28;20052;-60
2023/09/06 14:02:01;;;;;;;15.37;7.80;;;;;;;;;;6264736;28;20088;-59
2023/09/06 14:05:03;;;;;;;13.03;7.87;;;;;;;;;;6257246;28;20044;-61
2023/09/06 14:08:04;;;;;;;12.68;7.72;;;;;;;;;;6260676;28;20144;-60
2023/09/06 14:11:04;;;;;;;14.17;8.10;;;;;;;;;;6260541;28;20063;-60
2023/09/06 14:14:05;;;;;;;14.40;8.30;;;;;;;;;;6264601;28;20041;-60
2023/09/06 14:17:06;;;;;;;12.65;7.93;;;;;;;;;;6256570;28;20041;-60
2023/09/06 14:20:08;;;;;;;14.17;8.17;;;;;;;;;;6254573;28;20461;-60
2023/09/06 14:23:08;;;;;;;14.52;8.40;;;;;;;;;;6263078;28;20317;-61
2023/09/06 14:26:09;;;;;;;14.10;8.27;;;;;;;;;;6268425;28;20052;-61
2023/09/06 14:29:11;;;;;;;14.20;8.30;;;;;;;;;;6268389;28;20101;-60
2023/09/06 14:32:12;;;;;;;13.85;8.88;;;;;;;;;;6264130;28;20062;-61
2023/09/06 14:35:13;;;;;;;17.00;8.10;;;;;;;;;;6257811;28;20056;-60
2023/09/06 14:38:14;;;;;;;15.35;7.97;;;;;;;;;;6255132;28;20076;-58
2023/09/06 14:41:14;;;;;;;11.77;8.10;;;;;;;;;;6259134;28;20058;-58
2023/09/06 14:44:17;;;;;;;13.53;8.53;;;;;;;;;;6267832;28;20041;-60
2023/09/06 14:47:17;;;;;;;14.05;8.07;;;;;;;;;;6267568;28;20381;-60
2023/09/06 14:50:18;;;;;;;13.13;7.97;;;;;;;;;;6268414;28;20045;-59
2023/09/06 14:53:19;;;;;;;12.87;8.10;;;;;;;;;;6267518;28;20045;-60
2023/09/06 14:56:19;;;;;;;12.60;8.20;;;;;;;;;;6267611;28;20087;-60
2023/09/06 14:59:20;;;;;;;12.57;8.13;;;;;;;;;;6268356;28;20049;-60
2023/09/06 15:02:21;;;;;;;12.90;7.80;;;;;;;;;;6266431;28;20094;-59
2023/09/06 15:05:22;;;;;;;;;;;;;;;;;;6268290;28;20278;-60
2023/09/06 15:08:22;;;;;;;13.23;8.27;;;;;;;;;;6263880;28;19920;-60
2023/09/06 15:11:23;;;;;;;12.33;7.83;;;;;;;;;;6267559;28;20468;-57
2023/09/06 15:14:24;;;;;;;15.80;8.38;;;;;;;;;;6263964;28;20476;-60
2023/09/06 15:17:24;;;;;;;13.03;8.13;;;;;;;;;;6266900;28;20056;-60
2023/09/06 15:20:25;;;;;;;17.80;8.20;;;;;;;;;;6271535;28;20048;-60
2023/09/06 15:23:27;;;;;;;15.63;8.30;;;;;;;;;;6266373;28;20464;-60
2023/09/06 15:26:28;;;;;;;13.93;8.40;;;;;;;;;;6265109;28;20047;-60
2023/09/06 15:29:29;;;;;;;13.35;8.43;;;;;;;;;;6248646;28;20053;-60
2023/09/06 15:32:29;;;;;;;11.73;7.57;;;;;;;;;;6252843;28;20077;-60
2023/09/06 15:35:30;;;;;;;15.27;7.90;;;;;;;;;;6256583;28;21179;-60
2023/09/06 15:38:31;;;;;;;15.23;7.93;;;;;;;;;;6255335;28;20459;-60
2023/09/06 15:41:32;;;;;;;14.63;8.27;;;;;;;;;;6255709;28;20059;-61
2023/09/06 15:44:32;;;;;;;;;;;;;;;;;;6256430;28;20072;-60
2023/09/06 15:47:33;;;;;;;13.77;7.97;;;;;;;;;;6256099;28;20353;-61
2023/09/06 15:50:34;;;;;;;;;;;;;;;;;;6253070;28;20044;-60
2023/09/06 15:53:34;;;;;;;14.83;7.73;;;;;;;;;;6250710;28;20334;-59
2023/09/06 15:56:35;;;;;;;16.30;8.18;;;;;;;;;;6252855;28;20076;-59
2023/09/06 15:59:36;;;;;;;13.17;8.33;;;;;;;;;;6250025;28;20400;-58
2023/09/06 16:02:40;;;;;;;15.07;8.17;;;;;;;;;;6247193;28;20084;-60
2023/09/06 16:05:40;;;;;;;14.05;7.85;;;;;;;;;;6243708;28;20691;-59
2023/09/06 16:08:41;;;;;;;15.98;8.32;;;;;;;;;;6244348;28;20060;-58
2023/09/06 16:11:41;;;;;;;12.67;7.93;;;;;;;;;;6242445;28;20052;-59
2023/09/06 16:14:42;;;;;;;15.10;8.47;;;;;;;;;;6241909;28;20068;-56
2023/09/06 16:17:44;;;;;;;14.20;8.57;;;;;;;;;;6244131;28;20356;-58
2023/09/06 16:20:45;;;;;;;11.65;8.20;;;;;;;;;;6241993;28;20041;-60
2023/09/06 16:23:45;;;;;;;11.67;8.03;;;;;;;;;;6243174;28;20056;-59
2023/09/06 16:26:46;;;;;;;12.43;8.82;;;;;;;;;;6241261;28;20484;-59
2023/09/06 16:29:48;;;;;;;14.43;8.60;;;;;;;;;;6240966;28;20045;-59
2023/09/06 16:32:48;;;;;;;14.70;8.80;;;;;;;;;;6244969;28;20076;-59
2023/09/06 16:35:49;;;;;;;16.67;8.73;;;;;;;;;;6249825;28;20107;-58
2023/09/06 16:38:50;;;;;;;14.07;8.67;;;;;;;;;;6249932;28;20854;-59
2023/09/06 16:41:50;;;;;;;14.68;8.30;;;;;;;;;;6250901;28;20546;-58
2023/09/06 16:44:51;;;;;;;17.60;8.97;;;;;;;;;;6253414;28;20567;-60
2023/09/06 16:47:51;;;;;;;13.20;8.00;;;;;;;;;;6254080;28;20513;-54
2023/09/06 16:50:53;;;;;;;14.93;8.07;;;;;;;;;;6250673;28;20080;-58
2023/09/06 16:53:53;;;;;;;19.75;9.10;;;;;;;;;;6247131;28;20075;-56
2023/09/06 16:56:54;;;;;;;19.90;9.90;;;;;;;;;;6250320;28;20092;-55
2023/09/06 16:59:54;;;;;;;16.93;9.10;;;;;;;;;;6249315;28;20509;-59
2023/09/06 17:02:55;;;;;;;16.97;10.67;;;;;;;;;;6252438;28;20409;-57
2023/09/06 17:05:56;;;;;;;21.80;11.93;;;;;;;;;;6252365;28;20527;-58
2023/09/06 17:08:57;;;;;;;19.57;12.80;;;;;;;;;;6251529;28;20057;-56
2023/09/06 17:11:58;;;;;;;16.05;9.85;;;;;;;;;;6251517;28;20055;-59
2023/09/06 17:15:05;;;;;;;17.30;10.20;;;;;;;;;;6252472;28;20412;-57
2023/09/06 17:18:06;;;;;;;18.25;10.73;;;;;;;;;;6254532;28;20454;-58
2023/09/06 17:21:07;;;;;;;19.20;12.40;;;;;;;;;;6252339;28;20055;-59
2023/09/06 17:24:08;;;;;;;17.03;11.70;;;;;;;;;;6252509;28;20040;-54
2023/09/06 17:27:09;;;;;;;18.20;11.18;;;;;;;;;;6250711;28;20506;-58
2023/09/06 17:30:16;;;;;;;26.60;12.03;;;;;;;;;;6251506;28;20179;-59
2023/09/06 17:33:18;;;;;;;20.77;10.82;;;;;;;;;;6251981;28;20147;-59
2023/09/06 17:36:18;;;;;;;;;;;;;;;;;;6251601;28;20061;-57
2023/09/06 17:39:19;;;;;;;17.25;9.57;;;;;;;;;;6251140;28;20016;-58
2023/09/06 17:42:20;;;;;;;16.23;10.10;;;;;;;;;;6252985;28;20049;-57
2023/09/06 17:45:21;;;;;;;21.45;10.85;;;;;;;;;;6252407;28;20049;-58
2023/09/06 17:48:24;;;;;;;22.60;10.57;;;;;;;;;;6253587;28;20056;-57
2023/09/06 17:51:26;;;;;;;14.55;9.98;;;;;;;;;;6250649;28;20553;-59